Time;durP1;ratioP1;P1;durP2;ratioP2;P2;SDS_P1;SDS_P2;PMS_P1;PMS_P2;Temp;Humidity;BMP_temperature;BMP_pressure;BME280_temperature;BME280_humidity;BME280_pressure;Samples;Min_cycle;Max_cycle;Signal;HPM_P1;HPM_P2
2023/04/12 00:01:53;;;;;;;26.27;13.17;;;24.10;59.30;;;;;;5108748;27;88494;-59
2023/04/12 00:04:21;;;;;;;26.53;12.50;;;24.10;60.40;;;;;;5111470;27;89091;-59
2023/04/12 00:06:49;;;;;;;22.77;12.53;;;24.00;61.50;;;;;;5113139;27;89177;-59
2023/04/12 00:09:17;;;;;;;23.60;12.67;;;23.80;61.20;;;;;;5106178;27;88631;-60
2023/04/12 00:11:47;;;;;;;24.10;12.27;;;24.00;62.70;;;;;;5112542;27;88537;-59
2023/04/12 00:14:14;;;;;;;26.97;12.53;;;24.10;63.00;;;;;;5106411;27;89215;-59
2023/04/12 00:16:42;;;;;;;27.33;11.10;;;24.10;62.10;;;;;;5111508;27;88722;-59
2023/04/12 00:19:10;;;;;;;24.73;11.37;;;24.10;62.70;;;;;;5112015;27;87035;-59
2023/04/12 00:21:38;;;;;;;25.37;11.50;;;24.10;62.50;;;;;;5134418;27;86897;-58
2023/04/12 00:24:07;;;;;;;21.23;10.93;;;24.10;57.40;;;;;;5134264;27;88939;-59
2023/04/12 00:26:35;;;;;;;23.60;12.17;;;24.10;58.70;;;;;;5128718;27;88782;-58
2023/04/12 00:29:04;;;;;;;19.87;10.70;;;24.00;61.00;;;;;;5130540;27;86897;-59
2023/04/12 00:31:34;;;;;;;19.07;10.17;;;24.00;56.40;;;;;;5122455;27;87061;-58
2023/04/12 00:34:03;;;;;;;19.90;10.57;;;24.00;57.30;;;;;;5111421;27;89074;-58
2023/04/12 00:36:30;;;;;;;19.70;10.53;;;24.00;56.20;;;;;;5109713;27;88691;-57
2023/04/12 00:38:58;;;;;;;22.17;11.20;;;24.00;58.60;;;;;;5108552;27;87161;-59
2023/04/12 00:41:27;;;;;;;17.10;9.30;;;24.00;61.60;;;;;;5111364;27;86170;-59
2023/04/12 00:43:55;;;;;;;18.37;10.17;;;24.00;59.20;;;;;;5108717;27;89116;-59
2023/04/12 00:46:25;;;;;;;19.00;9.83;;;24.00;59.00;;;;;;5111154;27;88932;-59
2023/04/12 00:48:53;;;;;;;17.33;9.97;;;24.00;61.00;;;;;;5103459;27;88469;-58
2023/04/12 00:51:21;;;;;;;17.13;9.20;;;23.80;61.80;;;;;;5110506;27;86964;-59
2023/04/12 00:53:49;;;;;;;18.40;9.60;;;23.90;62.60;;;;;;5107990;27;90741;-59
2023/04/12 00:56:17;;;;;;;16.03;8.83;;;23.90;59.30;;;;;;5111329;27;88679;-59
2023/04/12 00:58:45;;;;;;;18.33;9.77;;;23.90;60.30;;;;;;5104785;27;87602;-59
2023/04/12 01:01:15;;;;;;;15.70;8.67;;;23.90;61.90;;;;;;5110233;27;87075;-59
2023/04/12 01:03:45;;;;;;;18.63;9.00;;;23.80;62.70;;;;;;5108452;27;89236;-59
2023/04/12 01:06:16;;;;;;;17.80;8.83;;;23.80;63.90;;;;;;5109387;27;88913;-59
2023/04/12 01:08:51;;;;;;;15.33;8.17;;;23.70;62.10;;;;;;5105719;27;87232;-59
2023/04/12 01:11:23;;;;;;;17.47;9.00;;;23.80;65.80;;;;;;5110312;27;87239;-59
2023/04/12 01:13:58;;;;;;;16.50;7.63;;;23.80;65.40;;;;;;5104209;27;89855;-59
2023/04/12 01:16:28;;;;;;;16.17;7.43;;;23.80;66.10;;;;;;5112300;27;89874;-59
2023/04/12 01:19:04;;;;;;;13.40;8.30;;;23.80;67.10;;;;;;5107500;27;87081;-59
2023/04/12 01:21:41;;;;;;;15.53;7.80;;;23.80;65.50;;;;;;5108082;27;86945;-59
2023/04/12 01:24:20;;;;;;;12.57;7.00;;;23.80;66.60;;;;;;5109179;27;89226;-59
2023/04/12 01:26:48;;;;;;;17.43;9.37;;;23.80;63.10;;;;;;5107055;27;88991;-59
2023/04/12 01:29:19;;;;;;;15.87;8.20;;;23.80;66.20;;;;;;5104619;27;87039;-59
2023/04/12 01:31:51;;;;;;;12.70;7.83;;;23.70;67.30;;;;;;5093518;27;86339;-59
2023/04/12 01:34:22;;;;;;;12.83;7.60;;;23.70;70.40;;;;;;5085036;27;89333;-59
2023/04/12 01:36:50;;;;;;;11.53;6.93;;;23.70;69.30;;;;;;5100540;27;89016;-59
2023/04/12 01:39:17;;;;;;;17.60;6.73;;;23.70;70.60;;;;;;5103241;27;87793;-59
2023/04/12 01:41:47;;;;;;;16.83;8.67;;;23.70;70.60;;;;;;5116200;27;87045;-59
2023/04/12 01:44:17;;;;;;;11.67;6.60;;;23.70;70.10;;;;;;5090818;27;89069;-59
2023/04/12 01:46:46;;;;;;;13.00;6.83;;;23.70;70.70;;;;;;5096431;27;89020;-59
2023/04/12 01:49:14;;;;;;;9.97;6.37;;;23.70;71.70;;;;;;5103992;27;86849;-59
2023/04/12 01:51:48;;;;;;;10.53;5.90;;;23.70;73.10;;;;;;5105285;27;86932;-59
2023/04/12 01:54:18;;;;;;;10.73;5.97;;;;;;;;;;5101293;27;89227;-59
2023/04/12 01:56:47;;;;;;;11.87;5.83;;;;;;;;;;5104964;27;88684;-59
2023/04/12 01:59:16;;;;;;;9.37;6.13;;;23.60;70.30;;;;;;5092733;27;89732;-59
2023/04/12 02:01:45;;;;;;;12.87;5.97;;;23.60;71.30;;;;;;5095006;27;87565;-59
2023/04/12 02:04:13;;;;;;;13.47;6.97;;;23.60;70.20;;;;;;5095001;27;90095;-58
2023/04/12 02:06:41;;;;;;;13.07;6.37;;;23.60;72.70;;;;;;5105847;27;89742;-59
2023/04/12 02:09:09;;;;;;;12.17;5.73;;;23.60;72.90;;;;;;5089811;27;87093;-59
2023/04/12 02:11:37;;;;;;;9.13;5.20;;;23.60;68.90;;;;;;5097378;27;86992;-58
2023/04/12 02:14:06;;;;;;;9.10;4.63;;;23.50;70.90;;;;;;5095967;27;89493;-58
2023/04/12 02:16:36;;;;;;;9.67;5.73;;;;;;;;;;5108974;27;87757;-58
2023/04/12 02:19:07;;;;;;;8.37;5.40;;;23.50;74.60;;;;;;5104395;27;87127;-59
2023/04/12 02:21:40;;;;;;;9.57;5.33;;;23.50;73.90;;;;;;5096688;27;86802;-58
2023/04/12 02:24:08;;;;;;;8.63;5.23;;;23.50;70.90;;;;;;5105146;27;89145;-59
2023/04/12 02:26:36;;;;;;;13.47;6.37;;;23.50;72.20;;;;;;5111249;27;89028;-58
2023/04/12 02:29:06;;;;;;;8.97;5.83;;;23.50;73.60;;;;;;5103712;27;88393;-58
2023/04/12 02:31:37;;;;;;;10.77;5.87;;;23.50;75.60;;;;;;5102707;27;86900;-59
2023/04/12 02:34:07;;;;;;;8.67;5.13;;;;;;;;;;5085253;27;88824;-58
2023/04/12 02:36:36;;;;;;;9.67;5.07;;;23.40;71.70;;;;;;5093562;27;88388;-59
2023/04/12 02:39:05;;;;;;;7.07;4.60;;;23.40;73.50;;;;;;5084946;27;87939;-59
2023/04/12 02:41:33;;;;;;;7.77;4.40;;;23.40;71.20;;;;;;5102165;27;86978;-59
2023/04/12 02:44:01;;;;;;;9.83;4.63;;;23.40;69.70;;;;;;5118067;27;88965;-59
2023/04/12 02:46:29;;;;;;;7.33;4.80;;;23.40;71.00;;;;;;5099241;27;89494;-59
2023/04/12 02:48:58;;;;;;;7.63;4.20;;;23.40;69.80;;;;;;5100999;27;87019;-59
2023/04/12 02:51:26;;;;;;;10.50;5.00;;;23.50;68.50;;;;;;5107632;27;87035;-59
2023/04/12 02:53:54;;;;;;;9.83;4.97;;;23.40;68.20;;;;;;5095602;27;89085;-59
2023/04/12 02:56:23;;;;;;;7.30;5.40;;;23.40;72.10;;;;;;5109949;27;89771;-59
2023/04/12 02:58:51;;;;;;;10.53;4.47;;;23.40;70.50;;;;;;5096453;27;87186;-59
2023/04/12 03:01:19;;;;;;;6.37;4.07;;;23.40;71.20;;;;;;5105808;27;87104;-59
2023/04/12 03:03:47;;;;;;;7.23;4.20;;;23.40;65.50;;;;;;5085515;27;89286;-59
2023/04/12 03:06:16;;;;;;;7.83;4.90;;;23.30;67.30;;;;;;5085172;27;88813;-59
2023/04/12 03:08:44;;;;;;;8.23;5.03;;;23.30;68.80;;;;;;5089694;27;89818;-58
2023/04/12 03:11:12;;;;;;;8.07;4.03;;;23.30;70.50;;;;;;5095101;27;86207;-58
2023/04/12 03:13:40;;;;;;;9.17;4.20;;;23.30;62.30;;;;;;5093996;27;89141;-58
2023/04/12 03:16:24;;;;;;;10.57;4.87;;;23.30;64.30;;;;;;5100421;27;88633;-59
2023/04/12 03:18:52;;;;;;;7.60;3.70;;;23.30;69.70;;;;;;5101128;27;87933;-58
2023/04/12 03:21:21;;;;;;;7.47;3.97;;;23.30;70.30;;;;;;5095938;27;88136;-58
2023/04/12 03:23:50;;;;;;;7.30;4.40;;;23.30;70.50;;;;;;5108081;27;88751;-58
2023/04/12 03:26:19;;;;;;;5.97;4.10;;;23.30;71.10;;;;;;5103035;27;89072;-58
2023/04/12 03:28:47;;;;;;;5.77;3.70;;;23.30;73.80;;;;;;5093313;27;87070;-58
2023/04/12 03:31:20;;;;;;;7.23;4.23;;;23.30;74.50;;;;;;5083414;27;86987;-58
2023/04/12 03:33:48;;;;;;;7.47;4.33;;;23.30;73.80;;;;;;5124034;27;89003;-59
2023/04/12 03:36:16;;;;;;;6.10;4.03;;;23.20;72.20;;;;;;5099797;27;89254;-59
2023/04/12 03:38:45;;;;;;;4.20;2.93;;;23.30;73.50;;;;;;5101328;27;87033;-59
2023/04/12 03:41:14;;;;;;;7.67;4.27;;;23.20;75.20;;;;;;5103767;27;87026;-58
2023/04/12 03:43:42;;;;;;;6.87;4.10;;;23.30;77.20;;;;;;5097074;27;90100;-58
2023/04/12 03:46:10;;;;;;;6.80;3.53;;;23.20;74.30;;;;;;5099429;27;89719;-59
2023/04/12 03:48:38;;;;;;;5.07;3.23;;;23.20;74.00;;;;;;5101435;27;87203;-58
2023/04/12 03:51:07;;;;;;;6.40;3.70;;;23.20;72.00;;;;;;5092742;27;87696;-58
2023/04/12 03:53:35;;;;;;;8.23;4.00;;;23.20;73.90;;;;;;5092193;27;89101;-58
2023/04/12 03:56:05;;;;;;;4.27;3.17;;;23.30;76.00;;;;;;5087277;27;88898;-58
2023/04/12 03:58:33;;;;;;;7.20;3.77;;;;;;;;;;5082664;27;86927;-58
2023/04/12 04:01:04;;;;;;;8.07;4.30;;;23.10;64.50;;;;;;5097929;27;86171;-58
2023/04/12 04:03:33;;;;;;;6.93;3.47;;;;;;;;;;5087478;27;88175;-58
2023/04/12 04:06:02;;;;;;;6.40;3.77;;;23.10;74.80;;;;;;5102433;27;88371;-58
2023/04/12 04:08:31;;;;;;;7.70;4.67;;;23.10;74.80;;;;;;5097091;27;87951;-58
2023/04/12 04:10:59;;;;;;;8.33;4.00;;;23.10;76.10;;;;;;5096136;27;86933;-58
2023/04/12 04:13:28;;;;;;;4.80;3.47;;;23.10;75.70;;;;;;5083923;27;89127;-58
2023/04/12 04:15:59;;;;;;;5.73;4.23;;;23.10;76.80;;;;;;5101025;27;88903;-58
2023/04/12 04:18:27;;;;;;;5.60;3.40;;;23.10;77.10;;;;;;5093077;27;87067;-58
2023/04/12 04:20:55;;;;;;;5.07;3.20;;;23.10;78.20;;;;;;5082096;27;86996;-59
2023/04/12 04:23:23;;;;;;;5.07;3.57;;;23.10;79.80;;;;;;5102250;27;89147;-59
2023/04/12 04:25:53;;;;;;;4.53;3.00;;;;;;;;;;5089925;27;88823;-58
2023/04/12 04:28:21;;;;;;;6.27;3.60;;;;;;;;;;5101222;27;87048;-58
2023/04/12 04:30:54;;;;;;;4.93;2.80;;;;;;;;;;5103429;27;87532;-59
2023/04/12 04:33:23;;;;;;;5.40;3.60;;;;;;;;;;5081030;27;90111;-58
2023/04/12 04:35:51;;;;;;;5.70;2.43;;;;;;;;;;5081682;27;89780;-58
2023/04/12 04:38:24;;;;;;;5.07;3.17;;;;;;;;;;5082870;27;87035;-58
2023/04/12 04:40:53;;;;;;;6.13;3.43;;;;;;;;;;5082756;27;87060;-58
2023/04/12 04:43:21;;;;;;;5.00;3.30;;;23.00;82.10;;;;;;5081793;27;91650;-58
2023/04/12 04:45:53;;;;;;;3.77;2.30;;;;;;;;;;5086762;27;88788;-58
2023/04/12 04:48:21;;;;;;;4.03;3.13;;;;;;;;;;5101906;27;87014;-59
2023/04/12 04:50:50;;;;;;;4.13;2.90;;;;;;;;;;5099303;27;87277;-59
2023/04/12 04:53:18;;;;;;;6.03;2.60;;;;;;;;;;5094815;27;87726;-59
2023/04/12 04:55:47;;;;;;;7.00;3.40;;;;;;;;;;5088908;27;88942;-59
2023/04/12 04:58:15;;;;;;;3.67;2.90;;;22.90;79.30;;;;;;5090617;27;88072;-59
2023/04/12 05:00:44;;;;;;;7.47;3.47;;;23.00;77.80;;;;;;5092072;27;86903;-58
2023/04/12 05:03:14;;;;;;;5.13;2.80;;;;;;;;;;5086395;27;89593;-58
2023/04/12 05:05:43;;;;;;;5.10;2.67;;;;;;;;;;5099250;27;88760;-59
2023/04/12 05:08:11;;;;;;;5.20;2.97;;;;;;;;;;5093007;27;87031;-59
2023/04/12 05:10:39;;;;;;;4.30;2.47;;;;;;;;;;5097211;27;87204;-59
2023/04/12 05:13:08;;;;;;;3.10;2.47;;;;;;;;;;5091404;27;88868;-59
2023/04/12 05:15:37;;;;;;;4.63;2.67;;;;;;;;;;5086659;27;87798;-59
2023/04/12 05:18:05;;;;;;;4.03;2.40;;;;;;;;;;5085298;27;87096;-59
2023/04/12 05:20:35;;;;;;;4.40;2.33;;;;;;;;;;5087610;27;86981;-59
2023/04/12 05:23:04;;;;;;;3.40;1.87;;;;;;;;;;5097233;27;90007;-59
2023/04/12 05:25:32;;;;;;;3.73;2.80;;;22.90;77.40;;;;;;5099104;27;89680;-59
2023/04/12 05:28:00;;;;;;;3.60;2.30;;;22.90;73.00;;;;;;5093515;27;87676;-59
2023/04/12 05:30:28;;;;;;;4.03;2.77;;;22.90;73.10;;;;;;5104707;27;87034;-59
2023/04/12 05:32:56;;;;;;;4.47;2.77;;;22.90;73.80;;;;;;5103316;27;89173;-59
2023/04/12 05:35:24;;;;;;;4.30;2.47;;;22.90;75.30;;;;;;5102362;27;88963;-59
2023/04/12 05:37:53;;;;;;;3.20;2.17;;;22.80;76.80;;;;;;5102398;27;87163;-58
2023/04/12 05:40:21;;;;;;;3.57;2.50;;;;;;;;;;5086408;27;86290;-59
2023/04/12 05:42:49;;;;;;;2.77;1.90;;;;;;;;;;5092690;27;88284;-59
2023/04/12 05:45:18;;;;;;;3.37;2.00;;;;;;;;;;5087455;27;88775;-58
2023/04/12 05:47:46;;;;;;;3.40;2.37;;;;;;;;;;5083312;27;88036;-59
2023/04/12 05:50:15;;;;;;;4.73;2.63;;;;;;;;;;5084341;27;86971;-59
2023/04/12 05:52:43;;;;;;;3.27;2.40;;;;;;;;;;5085522;27;88913;-59
2023/04/12 05:55:13;;;;;;;2.47;1.90;;;;;;;;;;5089001;27;88701;-59
2023/04/12 05:57:41;;;;;;;4.40;2.13;;;;;;;;;;5096844;27;87086;-59
2023/04/12 06:00:13;;;;;;;6.13;2.53;;;;;;;;;;5088104;27;88536;-59
2023/04/12 06:02:41;;;;;;;4.10;2.03;;;;;;;;;;5094177;27;88936;-58
2023/04/12 06:05:10;;;;;;;3.30;2.20;;;;;;;;;;5092181;27;89163;-59
2023/04/12 06:07:38;;;;;;;4.40;2.50;;;;;;;;;;5100325;27;88086;-59
2023/04/12 06:10:08;;;;;;;2.37;2.10;;;22.60;77.50;;;;;;5099288;27;89306;-59
2023/04/12 06:12:38;;;;;;;3.33;1.90;;;;;;;;;;5091262;27;91043;-59
2023/04/12 06:15:07;;;;;;;3.47;2.00;;;;;;;;;;5087623;27;89738;-60
2023/04/12 06:17:35;;;;;;;2.57;1.93;;;;;;;;;;5089276;27;87132;-59
2023/04/12 06:20:06;;;;;;;5.57;2.10;;;;;;;;;;5095687;27;88099;-59
2023/04/12 06:22:34;;;;;;;2.77;2.20;;;;;;;;;;5094906;27;89089;-59
2023/04/12 06:25:02;;;;;;;2.57;1.80;;;;;;;;;;5104891;27;88655;-59
2023/04/12 06:27:30;;;;;;;3.17;2.10;;;;;;;;;;5086831;27;87264;-59
2023/04/12 06:30:00;;;;;;;7.30;2.30;;;;;;;;;;5095725;27;86361;-59
2023/04/12 06:32:29;;;;;;;2.57;1.77;;;;;;;;;;5089417;27;89247;-59
2023/04/12 06:34:57;;;;;;;2.23;2.00;;;;;;;;;;5101994;27;89124;-59
2023/04/12 06:37:25;;;;;;;2.80;1.60;;;;;;;;;;5096501;27;89146;-59
2023/04/12 06:39:53;;;;;;;3.27;1.80;;;;;;;;;;5096527;27;89031;-59
2023/04/12 06:42:22;;;;;;;2.03;1.70;;;;;;;;;;5103162;27;89325;-58
2023/04/12 06:44:50;;;;;;;2.07;1.77;;;;;;;;;;5093165;27;89136;-59
2023/04/12 06:47:21;;;;;;;2.23;1.60;;;;;;;;;;5092002;27;87021;-59
2023/04/12 06:49:50;;;;;;;3.90;2.00;;;;;;;;;;5101938;27;87025;-59
2023/04/12 06:52:21;;;;;;;2.50;1.83;;;;;;;;;;5089675;27;88893;-58
2023/04/12 06:54:49;;;;;;;3.03;1.80;;;;;;;;;;5086985;27;89016;-59
2023/04/12 06:57:17;;;;;;;2.87;1.50;;;;;;;;;;5091798;27;87062;-58
2023/04/12 06:59:45;;;;;;;2.13;1.37;;;;;;;;;;5094627;27;87147;-59
2023/04/12 07:02:14;;;;;;;3.07;1.70;;;;;;;;;;5092669;27;89818;-60
2023/04/12 07:04:43;;;;;;;2.03;1.20;;;;;;;;;;5096764;27;90067;-60
2023/04/12 07:07:12;;;;;;;6.77;1.47;;;;;;;;;;5097135;27;87267;-59
2023/04/12 07:09:40;;;;;;;2.20;1.23;;;;;;;;;;5086888;27;87706;-59
2023/04/12 07:12:08;;;;;;;2.77;1.47;;;;;;;;;;5083391;27;89091;-60
2023/04/12 07:14:37;;;;;;;1.93;1.17;;;;;;;;;;5087045;27;88695;-59
2023/04/12 07:17:05;;;;;;;9.07;1.40;;;;;;;;;;5087224;27;87056;-60
2023/04/12 07:19:33;;;;;;;4.50;1.80;;;;;;;;;;5087219;27;86303;-60
2023/04/12 07:22:03;;;;;;;3.13;1.70;;;;;;;;;;5083115;27;89071;-59
2023/04/12 07:24:31;;;;;;;8.33;1.20;;;;;;;;;;5094219;27;88838;-59
2023/04/12 07:27:00;;;;;;;6.33;1.77;;;;;;;;;;5103980;27;88373;-59
2023/04/12 07:29:28;;;;;;;2.47;1.13;;;;;;;;;;5102027;27;86984;-59
2023/04/12 07:31:56;;;;;;;2.40;1.37;;;;;;;;;;5090394;27;89115;-59
2023/04/12 07:34:24;;;;;;;1.77;1.00;;;;;;;;;;5091241;27;88869;-59
2023/04/12 07:36:53;;;;;;;1.37;0.80;;;;;;;;;;5090355;27;89565;-58
2023/04/12 07:39:23;;;;;;;1.43;1.03;;;;;;;;;;5101019;27;86998;-60
2023/04/12 07:41:51;;;;;;;2.73;1.47;;;;;;;;;;5090777;27;89347;-59
2023/04/12 07:44:19;;;;;;;2.17;1.73;;;;;;;;;;5089251;27;88685;-59
2023/04/12 07:46:47;;;;;;;1.20;1.00;;;;;;;;;;5100805;27;87398;-59
2023/04/12 07:49:16;;;;;;;3.27;0.93;;;;;;;;;;5099135;27;86961;-60
2023/04/12 07:51:44;;;;;;;6.37;0.90;;;;;;;;;;5092133;27;90140;-62
2023/04/12 07:54:12;;;;;;;6.80;1.30;;;;;;;;;;5083345;27;89453;-63
2023/04/12 07:56:42;;;;;;;4.00;1.47;;;;;;;;;;5083267;27;87151;-59
2023/04/12 07:59:10;;;;;;;1.20;1.10;;;;;;;;;;5100466;27;87138;-59
2023/04/12 08:01:39;;;;;;;2.03;0.97;;;;;;;;;;5093080;27;88956;-59
2023/04/12 08:04:07;;;;;;;2.63;0.97;;;;;;;;;;5098531;27;89166;-59
2023/04/12 08:06:36;;;;;;;2.37;0.70;;;;;;;;;;5096147;27;88390;-59
2023/04/12 08:09:04;;;;;;;2.00;0.90;;;;;;;;;;5100065;27;86289;-58
2023/04/12 08:11:34;;;;;;;1.60;1.00;;;;;;;;;;5103828;27;88972;-59
2023/04/12 08:14:03;;;;;;;1.83;0.70;;;;;;;;;;5081841;27;88931;-59
2023/04/12 08:16:32;;;;;;;3.80;1.63;;;;;;;;;;5085093;27;87980;-59
2023/04/12 08:19:00;;;;;;;0.70;0.70;;;;;;;;;;5086940;27;88631;-59
2023/04/12 08:21:29;;;;;;;0.80;0.80;;;;;;;;;;5100441;27;89145;-59
2023/04/12 08:23:57;;;;;;;5.70;1.17;;;;;;;;;;5099364;27;89039;-59
2023/04/12 08:26:27;;;;;;;2.13;0.80;;;;;;;;;;5099953;27;86993;-58
2023/04/12 08:28:56;;;;;;;6.63;1.13;;;;;;;;;;5094970;27;87101;-59
2023/04/12 08:31:26;;;;;;;7.20;1.50;;;;;;;;;;5086123;27;89105;-60
2023/04/12 08:33:55;;;;;;;1.37;0.93;;;;;;;;;;5095909;27;88782;-60
2023/04/12 08:36:23;;;;;;;1.13;0.80;;;;;;;;;;5087591;27;87878;-59
2023/04/12 08:38:54;;;;;;;1.20;0.57;;;;;;;;;;5104832;27;87084;-61
2023/04/12 08:41:22;;;;;;;0.67;0.60;;;;;;;;;;5104100;27;89984;-61
2023/04/12 08:43:51;;;;;;;2.93;0.73;;;;;;;;;;5105537;27;89919;-62
2023/04/12 08:46:19;;;;;;;1.20;0.70;;;;;;;;;;5101366;27;88250;-62
2023/04/12 08:48:49;;;;;;;1.37;0.67;;;;;;;;;;5104454;27;87247;-61
2023/04/12 08:51:19;;;;;;;3.13;1.23;;;;;;;;;;5106670;27;88402;-60
2023/04/12 08:53:47;;;;;;;3.23;1.03;;;;;;;;;;5100840;27;89030;-61
2023/04/12 08:56:16;;;;;;;1.30;0.80;;;;;;;;;;5101123;27;87046;-62
2023/04/12 08:58:47;;;;;;;2.37;0.70;;;;;;;;;;5119695;27;86778;-62
2023/04/12 09:01:16;;;;;;;1.40;1.00;;;;;;;;;;5097625;27;88978;-62
2023/04/12 09:03:44;;;;;;;3.13;0.67;;;;;;;;;;5108918;27;89274;-61
2023/04/12 09:06:14;;;;;;;0.80;0.80;;;;;;;;;;5113757;27;89776;-61
2023/04/12 09:08:52;;;;;;;9.60;1.37;;;;;;;;;;5108970;27;87667;-61
2023/04/12 09:11:24;;;;;;;1.40;0.80;;;;;;;;;;5104516;27;87929;-61
2023/04/12 09:13:52;;;;;;;3.63;0.63;;;;;;;;;;5090209;27;88644;-61
2023/04/12 09:16:34;;;;;;;1.87;0.60;;;;;;;;;;5085969;27;88630;-61
2023/04/12 09:19:02;;;;;;;1.40;0.60;;;;;;;;;;5083437;27;87414;-61
2023/04/12 09:21:33;;;;;;;1.97;0.77;;;;;;;;;;5082724;27;88803;-61
2023/04/12 09:24:08;;;;;;;3.53;1.07;;;;;;;;;;5085313;27;88854;-61
2023/04/12 09:26:40;;;;;;;1.07;0.40;;;;;;;;;;5112005;27;87048;-61
2023/04/12 09:29:09;;;;;;;0.87;0.50;;;;;;;;;;5105858;27;88244;-60
2023/04/12 09:31:37;;;;;;;1.27;1.17;;;;;;;;;;5105288;27;90479;-60
2023/04/12 09:34:07;;;;;;;0.77;0.60;;;;;;;;;;5105635;27;89749;-61
2023/04/12 09:36:39;;;;;;;3.73;0.70;;;;;;;;;;5105865;27;87201;-60
2023/04/12 09:39:08;;;;;;;2.37;1.13;;;;;;;;;;5105720;27;86926;-60
2023/04/12 09:41:36;;;;;;;1.13;0.50;;;;;;;;;;5105830;27;88759;-60
2023/04/12 09:44:04;;;;;;;0.43;0.43;;;;;;;;;;5105271;27;88939;-60
2023/04/12 09:46:33;;;;;;;1.33;0.40;;;;;;;;;;5106146;27;87135;-61
2023/04/12 09:49:02;;;;;;;4.80;0.67;;;;;;;;;;5105595;27;86272;-60
2023/04/12 09:51:31;;;;;;;1.23;0.50;;;;;;;;;;5105833;27;89057;-60
2023/04/12 09:54:02;;;;;;;3.53;0.87;;;;;;;;;;5105201;27;88783;-60
2023/04/12 09:56:30;;;;;;;3.17;0.60;;;;;;;;;;5104746;27;87929;-60
2023/04/12 09:59:01;;;;;;;0.60;0.60;;;;;;;;;;5105307;27;86922;-60
2023/04/12 10:01:29;;;;;;;5.53;1.30;;;;;;;;;;5105465;27;89002;-60
2023/04/12 10:03:58;;;;;;;2.20;1.03;;;;;;;;;;5105644;27;88999;-60
2023/04/12 10:06:27;;;;;;;0.33;0.33;;;;;;;;;;5105406;27;86899;-60
2023/04/12 10:08:55;;;;;;;1.60;0.40;;;;;;;;;;5105587;27;87868;-60
2023/04/12 10:11:26;;;;;;;2.17;0.50;;;;;;;;;;5104894;27;89176;-60
2023/04/12 10:13:55;;;;;;;0.83;0.53;;;;;;;;;;5105062;27;88869;-60
2023/04/12 10:16:24;;;;;;;0.97;0.97;;;;;;;;;;5104712;27;87116;-60
2023/04/12 10:18:52;;;;;;;1.13;0.50;;;;;;;;;;5104498;27;86964;-60
2023/04/12 10:21:21;;;;;;;1.23;0.60;;;;;;;;;;5104544;27;89957;-60
2023/04/12 10:23:49;;;;;;;1.43;0.40;;;;;;;;;;5104885;27;89755;-61
2023/04/12 10:26:17;;;;;;;1.60;0.50;;;;;;;;;;5105341;27;86862;-60
2023/04/12 10:28:47;;;;;;;0.70;0.70;;;;;;;;;;5105417;27;86895;-60
2023/04/12 10:31:27;;;;;;;1.03;0.40;;;;;;;;;;5105214;27;89142;-60
2023/04/12 10:33:56;;;;;;;1.47;0.70;;;;;;;;;;5104867;27;88834;-60
2023/04/12 10:36:39;;;;;;;0.73;0.43;;;;;;;;;;5104984;27;87059;-60
2023/04/12 10:39:10;;;;;;;0.70;0.70;;;;;;;;;;5104686;27;86324;-60
2023/04/12 10:41:39;;;;;;;1.13;0.40;;;;;;;;;;5104977;27;89287;-60
2023/04/12 10:44:22;;;;;;;1.13;0.40;;;;;;;;;;5104240;27;87709;-61
2023/04/12 10:46:52;;;;;;;0.90;0.87;;;;;;;;;;5103755;27;88019;-60
2023/04/12 10:49:20;;;;;;;2.33;0.70;;;;;;;;;;5104762;27;86924;-61
2023/04/12 10:52:13;;;;;;;0.60;0.60;;;;;;;;;;5104700;27;89115;-60
2023/04/12 10:54:41;;;;;;;0.80;0.50;;;;;;;;;;5084896;27;87819;-60
2023/04/12 10:57:30;;;;;;;0.40;0.40;;;;;;;;;;5105184;27;87052;-60
2023/04/12 10:59:59;;;;;;;0.20;0.20;;;;;;;;;;5103578;27;86876;-60
2023/04/12 11:02:28;;;;;;;2.07;0.60;;;;;;;;;;5104749;27;87895;-60
2023/04/12 11:05:17;;;;;;;0.67;0.43;;;;;;;;;;5104955;27;88656;-60
2023/04/12 11:07:46;;;;;;;0.80;0.50;;;;;;;;;;5104647;27;87087;-60
2023/04/12 11:10:15;;;;;;;0.43;0.43;;;;;;;;;;5104590;27;87005;-60
2023/04/12 11:12:43;;;;;;;0.80;0.80;;;;;;;;;;5103698;27;89958;-60
2023/04/12 11:15:13;;;;;;;0.50;0.50;;;;;;;;;;5103839;27;89632;-60
2023/04/12 11:17:42;;;;;;;0.47;0.47;;;;;;;;;;5104585;27;87142;-60
2023/04/12 11:20:13;;;;;;;0.60;0.60;;;;;;;;;;5104112;27;87014;-60
2023/04/12 11:22:41;;;;;;;1.50;0.50;;;;;;;;;;5103802;27;87972;-60
2023/04/12 11:25:10;;;;;;;1.30;0.53;;;;;;;;;;5103991;27;88739;-60
2023/04/12 11:27:38;;;;;;;0.47;0.40;;;;;;;;;;5104314;27;86758;-60
2023/04/12 11:30:07;;;;;;;1.77;0.60;;;;;;;;;;5104565;27;86251;-61
2023/04/12 11:32:40;;;;;;;0.37;0.37;;;;;;;;;;5103493;27;89330;-60
2023/04/12 11:35:08;;;;;;;1.90;0.80;;;;;;;;;;5104004;27;89020;-60
2023/04/12 11:37:37;;;;;;;0.50;0.40;;;;;;;;;;5103802;27;88034;-60
2023/04/12 11:40:06;;;;;;;1.17;0.50;;;;;;;;;;5104071;27;87007;-60
2023/04/12 11:42:34;;;;;;;0.30;0.30;;;;;;;;;;5103765;27;89091;-60
2023/04/12 11:45:02;;;;;;;0.50;0.30;;;;;;;;;;5103240;27;88878;-60
2023/04/12 11:47:44;;;;;;;0.20;0.20;;;;;;;;;;5103805;27;87641;-60
2023/04/12 11:50:12;;;;;;;2.83;0.80;;;;;;;;;;5104125;27;86923;-60
2023/04/12 11:52:40;;;;;;;0.20;0.20;;;;;;;;;;5103711;27;89465;-61
2023/04/12 11:55:09;;;;;;;4.50;0.43;;;;;;;;;;5103959;27;88645;-60
2023/04/12 11:57:38;;;;;;;1.50;0.57;;;;;;;;;;5103645;27;86751;-60
2023/04/12 12:00:07;;;;;;;0.57;0.57;;;;;;;;;;5104075;27;86956;-60
2023/04/12 12:02:36;;;;;;;0.27;0.27;;;;;;;;;;5103822;27;90439;-60
2023/04/12 12:05:21;;;;;;;0.57;0.37;;;;;;;;;;5103126;27;89739;-61
2023/04/12 12:07:51;;;;;;;0.40;0.40;;;;;;;;;;5103605;27;87078;-60
2023/04/12 12:10:19;;;;;;;1.03;0.57;;;;;;;;;;5102993;27;87095;-60
2023/04/12 12:13:11;;;;;;;2.40;0.53;;;;;;;;;;5103471;27;91060;-60
2023/04/12 12:15:39;;;;;;;0.73;0.63;;;;;;;;;;5103108;27;88790;-60
2023/04/12 12:18:08;;;;;;;0.80;0.40;;;;;;;;;;5103765;27;86979;-60
2023/04/12 12:20:42;;;;;;;0.33;0.33;;;;;;;;;;5103397;27;86423;-60
2023/04/12 12:23:10;;;;;;;2.67;0.63;;;;;;;;;;5102863;27;89054;-60
2023/04/12 12:25:38;;;;;;;1.50;0.87;;;;;;;;;;5103298;27;88810;-60
2023/04/12 12:28:06;;;;;;;0.93;0.57;;;;;;;;;;5103162;27;87702;-61
2023/04/12 12:30:39;;;;;;;0.33;0.33;;;;;;;;;;5102754;27;87015;-60
2023/04/12 12:33:08;;;;;;;0.93;0.60;;;;;;;;;;5102508;27;89203;-60
2023/04/12 12:35:37;;;;;;;0.70;0.50;;;;;;;;;;5102366;27;89031;-60
2023/04/12 12:38:08;;;;;;;1.20;0.73;;;;;;;;;;5103149;27;86838;-60
2023/04/12 12:40:37;;;;;;;0.40;0.40;;;;;;;;;;5103346;27;87056;-60
2023/04/12 12:43:06;;;;;;;0.30;0.30;;;;;;;;;;5103162;27;89091;-60
2023/04/12 12:45:35;;;;;;;1.10;0.37;;;;;;;;;;5103288;27;88607;-60
2023/04/12 12:48:04;;;;;;;0.30;0.30;;;;;;;;;;5103565;27;87051;-60
2023/04/12 12:50:32;;;;;;;0.50;0.50;;;;;;;;;;5102576;27;87038;-60
2023/04/12 12:53:01;;;;;;;1.60;0.40;;;;;;;;;;5101953;27;90222;-60
2023/04/12 12:55:31;;;;;;;2.97;0.53;;;;;;;;;;5102955;27;89816;-60
2023/04/12 12:57:59;;;;;;;0.67;0.60;;;;;;;;;;5103107;27;87008;-60
2023/04/12 13:00:31;;;;;;;0.43;0.40;;;;;;;;;;5103334;27;86792;-60
2023/04/12 13:02:59;;;;;;;0.37;0.30;;;;;;;;;;5102765;27;89174;-60
2023/04/12 13:05:28;;;;;;;1.23;0.50;;;;;;;;;;5102331;27;88979;-60
2023/04/12 13:07:56;;;;;;;0.30;0.30;;;;;;;;;;5102910;27;87029;-60
2023/04/12 13:10:26;;;;;;;0.93;0.60;;;;;;;;;;5103360;27;86406;-60
2023/04/12 13:12:55;;;;;;;1.83;0.97;;;;;;;;;;5102666;27;88145;-60
2023/04/12 13:15:24;;;;;;;0.57;0.50;;;;;;;;;;5101815;27;88767;-61
2023/04/12 13:17:52;;;;;;;0.30;0.30;;;;;;;;;;5102154;27;88169;-61
2023/04/12 13:20:21;;;;;;;0.97;0.30;;;;;;;;;;5102988;27;86833;-60
2023/04/12 13:22:50;;;;;;;0.37;0.20;;;;;;;;;;5103283;27;89190;-60
2023/04/12 13:25:19;;;;;;;0.20;0.20;;;;;;;;;;5105349;27;88762;-60
2023/04/12 13:27:48;;;;;;;0.30;0.30;;;;;;;;;;5105988;27;87071;-60
2023/04/12 13:30:17;;;;;;;2.10;0.50;;;;;;;;;;5106132;27;87057;-60
2023/04/12 13:32:46;;;;;;;0.37;0.30;;;;;;;;;;5105409;27;89325;-60
2023/04/12 13:35:14;;;;;;;0.50;0.40;;;;;;;;;;5105833;27;89006;-60
2023/04/12 13:37:42;;;;;;;1.67;0.57;;;;;;;;;;5106024;27;86824;-60
2023/04/12 13:40:11;;;;;;;0.97;0.40;;;;;;;;;;5105446;27;87104;-60
2023/04/12 13:42:39;;;;;;;0.70;0.40;;;;;;;;;;5104989;27;89874;-60
2023/04/12 13:45:09;;;;;;;0.33;0.30;;;;;;;;;;5105234;27;89858;-60
2023/04/12 13:47:40;;;;;;;1.83;0.50;;;;;;;;;;5105571;27;87018;-60
2023/04/12 13:50:09;;;;;;;0.37;0.37;;;;;;;;;;5104945;27;86853;-60
2023/04/12 13:52:37;;;;;;;0.20;0.20;;;;;;;;;;5105700;27;89131;-60
2023/04/12 13:55:06;;;;;;;0.43;0.43;;;;;;;;;;5105740;27;88724;-60
2023/04/12 13:57:35;;;;;;;0.43;0.40;;;;;;;;;;5105925;27;87040;-60
2023/04/12 14:00:04;;;;;;;0.97;0.50;;;;;;;;;;5106335;27;86840;-60
2023/04/12 14:02:32;;;;;;;1.00;0.50;;;;;;;;;;5105825;27;89040;-60
2023/04/12 14:05:02;;;;;;;0.40;0.40;;;;;;;;;;5105029;27;88822;-60
2023/04/12 14:07:31;;;;;;;1.10;0.70;;;;;;;;;;5104921;27;87971;-60
2023/04/12 14:09:59;;;;;;;2.30;0.40;;;;;;;;;;5105263;27;86886;-60
2023/04/12 14:12:28;;;;;;;0.30;0.30;;;;;;;;;;5105188;27;89002;-60